createdAt,value
2018-09-08T00:00:08.295Z,9.30
2018-09-08T00:02:36.562Z,9.20
2018-09-08T00:05:04.674Z,9.10
2018-09-08T00:07:38.036Z,9.10
2018-09-08T00:10:08.853Z,9.00
2018-09-08T00:12:36.831Z,9.00
2018-09-08T00:15:11.134Z,9.10
2018-09-08T00:17:44.481Z,9.00
2018-09-08T00:20:18.090Z,9.00
2018-09-08T00:22:51.505Z,9.00
2018-09-08T00:25:25.263Z,9.00
2018-09-08T00:28:00.240Z,9.00
2018-09-08T00:30:28.342Z,9.00
2018-09-08T00:32:57.481Z,8.90
2018-09-08T00:35:25.701Z,8.90
2018-09-08T00:37:53.617Z,8.80
2018-09-08T00:40:21.797Z,8.80
2018-09-08T00:42:50.008Z,8.80
2018-09-08T00:45:18.081Z,8.70
2018-09-08T00:47:46.162Z,8.70
2018-09-08T00:50:14.691Z,8.70
2018-09-08T00:52:43.277Z,8.70
2018-09-08T00:55:11.222Z,8.60
2018-09-08T00:57:39.458Z,8.70
2018-09-08T01:00:07.619Z,8.60
2018-09-08T01:02:36.003Z,8.60
2018-09-08T01:05:03.938Z,8.50
2018-09-08T01:07:32.064Z,8.50
2018-09-08T01:10:01.531Z,8.50
2018-09-08T01:12:30.431Z,8.50
2018-09-08T01:14:59.403Z,8.50
2018-09-08T01:17:27.501Z,8.40
2018-09-08T01:19:55.897Z,8.40
2018-09-08T01:22:24.414Z,8.30
2018-09-08T01:24:52.348Z,8.30
2018-09-08T01:27:20.261Z,8.30
2018-09-08T01:29:49.382Z,8.30
2018-09-08T01:32:17.477Z,8.20
2018-09-08T01:34:45.541Z,8.20
2018-09-08T01:37:13.287Z,8.20
2018-09-08T01:39:41.335Z,8.10
2018-09-08T01:42:09.485Z,8.10
2018-09-08T01:44:37.332Z,8.00
2018-09-08T01:47:05.663Z,8.00
2018-09-08T01:49:33.571Z,8.00
2018-09-08T01:52:01.728Z,7.90
2018-09-08T01:54:29.681Z,7.90
2018-09-08T01:56:57.986Z,7.80
2018-09-08T01:59:26.108Z,7.80
2018-09-08T02:01:54.414Z,7.80
2018-09-08T02:04:22.675Z,7.70
2018-09-08T02:06:50.702Z,7.70
2018-09-08T02:09:18.968Z,7.70
2018-09-08T02:11:47.714Z,7.70
2018-09-08T02:14:15.533Z,7.60
2018-09-08T02:16:44.074Z,7.60
2018-09-08T02:19:12.357Z,7.50
2018-09-08T02:21:40.241Z,7.50
2018-09-08T02:24:08.200Z,7.50
2018-09-08T02:26:37.192Z,7.40
2018-09-08T02:29:05.166Z,7.40
2018-09-08T02:31:33.810Z,7.40
2018-09-08T02:34:02.054Z,7.30
2018-09-08T02:36:30.460Z,7.30
2018-09-08T02:38:58.541Z,7.20
2018-09-08T02:41:26.740Z,7.20
2018-09-08T02:43:54.696Z,7.20
2018-09-08T02:46:22.870Z,7.10
2018-09-08T02:48:51.098Z,7.10
2018-09-08T02:51:17.809Z,7.10
2018-09-08T02:53:44.870Z,7.10
2018-09-08T02:56:11.647Z,7.10
2018-09-08T02:58:38.300Z,7.00
2018-09-08T03:01:05.058Z,7.00
2018-09-08T03:03:31.714Z,6.90
2018-09-08T03:05:58.518Z,6.90
2018-09-08T03:08:25.141Z,6.90
2018-09-08T03:10:51.763Z,6.90
2018-09-08T03:13:18.737Z,6.80
2018-09-08T03:15:45.390Z,6.80
2018-09-08T03:18:12.149Z,6.80
2018-09-08T03:20:39.221Z,6.70
2018-09-08T03:23:06.078Z,6.70
2018-09-08T03:25:32.905Z,6.70
2018-09-08T03:27:59.564Z,6.60
2018-09-08T03:30:26.686Z,6.60
2018-09-08T03:32:53.843Z,6.60
2018-09-08T03:35:20.380Z,6.50
2018-09-08T03:37:46.899Z,6.50
2018-09-08T03:40:13.870Z,6.50
2018-09-08T03:42:41.063Z,6.40
2018-09-08T03:45:07.869Z,6.30
2018-09-08T03:47:34.792Z,6.30
2018-09-08T03:50:01.676Z,6.30
2018-09-08T03:52:28.449Z,6.30
2018-09-08T03:54:55.024Z,6.30
2018-09-08T03:57:21.880Z,6.20
2018-09-08T03:59:48.716Z,6.20
2018-09-08T04:02:15.532Z,6.20
2018-09-08T04:04:43.510Z,6.20
2018-09-08T04:07:11.536Z,6.10
2018-09-08T04:09:39.517Z,6.10
2018-09-08T04:12:07.424Z,6.10
2018-09-08T04:14:37.293Z,6.10
2018-09-08T04:17:05.557Z,6.10
2018-09-08T04:19:33.549Z,6.10
2018-09-08T04:22:01.931Z,6.10
2018-09-08T04:24:30.015Z,6.10
2018-09-08T04:26:58.386Z,6.10
2018-09-08T04:29:26.476Z,6.10
2018-09-08T04:31:54.929Z,6.10
2018-09-08T04:34:23.295Z,6.10
2018-09-08T04:36:51.435Z,6.10
2018-09-08T04:39:20.728Z,6.10
2018-09-08T04:41:48.983Z,6.10
2018-09-08T04:44:16.934Z,6.10
2018-09-08T04:46:45.358Z,6.10
2018-09-08T04:49:13.492Z,6.00
2018-09-08T04:51:41.499Z,6.00
2018-09-08T04:54:10.018Z,6.00
2018-09-08T04:56:37.950Z,6.00
2018-09-08T04:59:06.062Z,6.10
2018-09-08T05:01:34.641Z,6.10
2018-09-08T05:04:02.597Z,6.10
2018-09-08T05:06:30.858Z,6.10
2018-09-08T05:09:00.077Z,6.10
2018-09-08T05:11:27.937Z,6.10
2018-09-08T05:13:56.529Z,6.10
2018-09-08T05:16:24.607Z,6.10
2018-09-08T05:18:53.161Z,6.10
2018-09-08T05:21:21.625Z,6.10
2018-09-08T05:23:49.702Z,6.20
2018-09-08T05:26:18.019Z,6.20
2018-09-08T05:28:46.260Z,6.20
2018-09-08T05:31:14.785Z,6.20
2018-09-08T05:33:42.842Z,6.20
2018-09-08T05:36:11.484Z,6.30
2018-09-08T05:38:39.653Z,6.30
2018-09-08T05:41:08.277Z,6.40
2018-09-08T05:43:36.440Z,6.40
2018-09-08T05:46:04.319Z,6.40
2018-09-08T05:48:32.456Z,6.50
2018-09-08T05:51:01.805Z,6.50
2018-09-08T05:53:30.156Z,6.60
2018-09-08T05:55:59.283Z,6.60
2018-09-08T05:58:28.222Z,6.60
2018-09-08T06:00:56.659Z,6.70
2018-09-08T06:03:24.614Z,6.70
2018-09-08T06:05:52.811Z,6.70
2018-09-08T06:08:20.890Z,6.80
2018-09-08T06:13:24.116Z,6.90
2018-09-08T06:15:52.225Z,7.00
2018-09-08T06:18:20.614Z,7.10
2018-09-08T06:20:48.664Z,7.20
2018-09-08T06:23:16.568Z,7.30
2018-09-08T06:25:44.729Z,7.40
2018-09-08T06:28:12.592Z,7.40
2018-09-08T06:30:40.695Z,7.50
2018-09-08T06:33:08.667Z,7.70
2018-09-08T06:35:37.050Z,8.00
2018-09-08T06:38:05.511Z,8.40
2018-09-08T06:40:33.639Z,8.70
2018-09-08T06:43:01.702Z,9.20
2018-09-08T06:45:30.056Z,9.60
2018-09-08T06:47:58.060Z,10.00
2018-09-08T06:50:26.118Z,10.40
2018-09-08T06:52:55.196Z,10.70
2018-09-08T06:55:23.643Z,10.90
2018-09-08T06:57:51.735Z,11.30
2018-09-08T07:00:19.830Z,11.70
2018-09-08T07:02:48.213Z,12.00
2018-09-08T07:05:16.518Z,12.10
2018-09-08T07:07:44.721Z,12.30
2018-09-08T07:10:12.940Z,12.50
2018-09-08T07:12:41.254Z,12.50
2018-09-08T07:15:10.161Z,12.60
2018-09-08T07:17:38.315Z,12.90
2018-09-08T07:20:06.953Z,13.30
2018-09-08T07:22:35.672Z,13.40
2018-09-08T07:25:03.845Z,13.40
2018-09-08T07:27:32.171Z,13.40
2018-09-08T07:30:00.788Z,13.40
2018-09-08T07:32:28.758Z,13.50
2018-09-08T07:34:57.568Z,13.50
2018-09-08T07:37:25.538Z,13.50
2018-09-08T07:39:53.966Z,13.60
2018-09-08T07:42:22.035Z,13.70
2018-09-08T07:44:50.469Z,13.80
2018-09-08T07:47:19.100Z,13.90
2018-09-08T07:49:47.087Z,13.90
2018-09-08T07:52:15.835Z,14.00
2018-09-08T07:54:43.728Z,14.10
2018-09-08T07:57:11.874Z,14.20
2018-09-08T07:59:40.232Z,14.20
2018-09-08T08:02:08.809Z,14.30
2018-09-08T08:04:37.011Z,14.40
2018-09-08T08:07:09.582Z,14.50
2018-09-08T08:09:37.690Z,14.60
2018-09-08T08:12:06.093Z,14.70
2018-09-08T08:14:34.244Z,14.80
2018-09-08T08:17:02.647Z,14.90
2018-09-08T08:19:30.736Z,15.10
2018-09-08T08:21:59.018Z,15.30
2018-09-08T08:24:27.172Z,15.40
2018-09-08T08:26:56.089Z,15.50
2018-09-08T08:29:24.117Z,15.50
2018-09-08T08:31:52.140Z,15.60
2018-09-08T08:34:21.032Z,15.70
2018-09-08T08:36:49.017Z,15.70
2018-09-08T08:39:16.870Z,15.80
2018-09-08T08:41:44.975Z,15.90
2018-09-08T08:44:14.068Z,16.10
2018-09-08T08:46:42.260Z,16.10
2018-09-08T08:49:10.645Z,16.20
2018-09-08T08:51:49.949Z,16.40
2018-09-08T08:54:21.236Z,16.60
2018-09-08T08:56:49.651Z,16.70
2018-09-08T08:59:18.508Z,16.80
2018-09-08T09:01:46.834Z,16.90
2018-09-08T09:04:14.848Z,16.90
2018-09-08T09:06:43.879Z,17.00
2018-09-08T09:09:13.492Z,17.10
2018-09-08T09:11:42.026Z,17.20
2018-09-08T09:14:10.513Z,17.30
2018-09-08T09:16:38.572Z,17.40
2018-09-08T09:19:40.366Z,17.50
2018-09-08T09:22:22.122Z,17.60
2018-09-08T09:24:54.204Z,17.80
2018-09-08T09:27:22.333Z,17.90
2018-09-08T09:29:50.198Z,18.00
2018-09-08T09:32:18.026Z,18.20
2018-09-08T09:34:45.710Z,18.20
2018-09-08T09:37:13.668Z,18.20
2018-09-08T09:39:42.182Z,18.30
2018-09-08T09:42:10.236Z,18.30
2018-09-08T09:44:38.116Z,18.30
2018-09-08T09:47:05.943Z,18.40
2018-09-08T09:49:33.889Z,18.50
2018-09-08T09:52:01.814Z,18.60
2018-09-08T09:54:30.575Z,18.60
2018-09-08T09:56:58.841Z,18.70
2018-09-08T09:59:27.119Z,18.80
2018-09-08T10:02:00.939Z,18.80
2018-09-08T10:04:29.588Z,18.80
2018-09-08T10:06:58.066Z,18.90
2018-09-08T10:09:26.702Z,19.00
2018-09-08T10:11:55.022Z,19.00
2018-09-08T10:14:23.867Z,19.10
2018-09-08T10:16:51.871Z,19.20
2018-09-08T10:19:20.204Z,19.20
2018-09-08T10:21:48.554Z,19.20
2018-09-08T10:24:16.836Z,19.20
2018-09-08T10:26:44.867Z,19.20
2018-09-08T10:29:13.494Z,19.20
2018-09-08T10:31:41.462Z,19.30
2018-09-08T10:34:09.486Z,19.30
2018-09-08T10:36:38.188Z,19.40
2018-09-08T10:39:07.113Z,19.50
2018-09-08T10:41:36.705Z,19.60
2018-09-08T10:44:04.813Z,19.60
2018-09-08T10:46:32.896Z,19.60
2018-09-08T10:49:00.889Z,19.50
2018-09-08T10:51:47.384Z,19.60
2018-09-08T10:54:15.632Z,19.50
2018-09-08T10:56:43.722Z,19.40
2018-09-08T10:59:11.731Z,19.50
2018-09-08T11:01:40.102Z,19.50
2018-09-08T11:04:08.228Z,19.60
2018-09-08T11:06:36.708Z,19.60
2018-09-08T11:09:05.729Z,19.70
2018-09-08T11:11:35.028Z,19.80
2018-09-08T11:14:03.429Z,19.70
2018-09-08T11:16:31.430Z,19.80
2018-09-08T11:18:59.883Z,19.90
2018-09-08T11:21:28.092Z,20.00
2018-09-08T11:23:56.401Z,20.10
2018-09-08T11:26:24.802Z,20.10
2018-09-08T11:28:53.859Z,20.10
2018-09-08T11:31:22.629Z,20.10
2018-09-08T11:33:50.796Z,20.10
2018-09-08T11:36:19.105Z,20.10
2018-09-08T11:38:47.021Z,20.10
2018-09-08T11:41:15.044Z,20.20
2018-09-08T11:46:18.170Z,20.30
2018-09-08T11:48:46.673Z,20.30
2018-09-08T11:51:14.715Z,20.30
2018-09-08T11:53:42.961Z,20.40
2018-09-08T11:56:11.305Z,20.40
2018-09-08T11:58:39.199Z,20.30
2018-09-08T12:01:07.238Z,20.20
2018-09-08T12:03:35.271Z,20.30
2018-09-08T12:06:03.494Z,20.30
2018-09-08T12:08:31.705Z,20.40
2018-09-08T12:11:00.190Z,20.40
2018-09-08T12:13:28.510Z,20.50
2018-09-08T12:15:56.526Z,20.50
2018-09-08T12:18:24.371Z,20.50
2018-09-08T12:20:52.572Z,20.40
2018-09-08T12:23:22.945Z,20.30
2018-09-08T12:25:51.293Z,20.20
2018-09-08T12:28:19.310Z,20.10
2018-09-08T12:30:47.439Z,20.00
2018-09-08T12:33:16.076Z,19.90
2018-09-08T12:35:44.120Z,19.90
2018-09-08T12:38:15.355Z,19.90
2018-09-08T12:40:43.252Z,20.00
2018-09-08T12:43:11.797Z,20.10
2018-09-08T12:45:39.775Z,20.10
2018-09-08T12:48:07.856Z,20.10
2018-09-08T12:50:36.113Z,20.10
2018-09-08T12:53:04.021Z,20.00
2018-09-08T12:55:31.994Z,19.90
2018-09-08T12:58:00.879Z,19.90
2018-09-08T13:00:28.946Z,19.90
2018-09-08T13:02:57.116Z,19.80
2018-09-08T13:05:25.153Z,19.90
2018-09-08T13:07:52.906Z,19.90
2018-09-08T13:10:20.754Z,20.00
2018-09-08T13:12:48.572Z,20.10
2018-09-08T13:15:16.615Z,20.10
2018-09-08T13:17:44.736Z,20.20
2018-09-08T13:20:12.676Z,20.10
2018-09-08T13:22:40.749Z,20.20
2018-09-08T13:25:08.642Z,20.20
2018-09-08T13:27:36.664Z,20.30
2018-09-08T13:30:05.044Z,20.30
2018-09-08T13:32:33.194Z,20.40
2018-09-08T13:35:01.472Z,20.50
2018-09-08T13:37:29.384Z,20.40
2018-09-08T13:39:57.128Z,20.30
2018-09-08T13:42:24.986Z,20.30
2018-09-08T13:44:53.329Z,20.20
2018-09-08T13:47:21.404Z,20.30
2018-09-08T13:49:49.336Z,20.30
2018-09-08T13:52:17.977Z,20.40
2018-09-08T13:54:45.954Z,20.40
2018-09-08T13:57:13.665Z,20.30
2018-09-08T13:59:41.508Z,20.40
2018-09-08T14:02:09.445Z,20.40
2018-09-08T14:04:37.564Z,20.30
2018-09-08T14:07:05.548Z,20.30
2018-09-08T14:09:33.239Z,20.40
2018-09-08T14:12:01.191Z,20.30
2018-09-08T14:14:29.086Z,20.30
2018-09-08T14:16:56.743Z,20.30
2018-09-08T14:19:24.406Z,20.30
2018-09-08T14:21:52.361Z,20.30
2018-09-08T14:24:20.559Z,20.30
2018-09-08T14:26:48.666Z,20.30
2018-09-08T14:29:16.525Z,20.20
2018-09-08T14:31:44.570Z,20.20
2018-09-08T14:34:12.568Z,20.30
2018-09-08T14:36:40.403Z,20.30
2018-09-08T14:39:09.194Z,20.20
2018-09-08T14:41:37.520Z,20.20
2018-09-08T14:44:05.962Z,20.10
2018-09-08T14:46:34.178Z,20.00
2018-09-08T14:49:03.003Z,20.00
2018-09-08T14:51:31.005Z,20.10
2018-09-08T14:53:59.976Z,20.10
2018-09-08T14:56:27.780Z,20.10
2018-09-08T14:58:55.499Z,20.10
2018-09-08T15:01:23.422Z,20.00
2018-09-08T15:03:51.250Z,20.00
2018-09-08T15:06:19.121Z,20.00
2018-09-08T15:08:47.208Z,20.00
2018-09-08T15:11:14.936Z,19.90
2018-09-08T15:13:42.984Z,20.00
2018-09-08T15:16:10.818Z,20.00
2018-09-08T15:18:38.657Z,20.00
2018-09-08T15:21:06.817Z,20.00
2018-09-08T15:23:34.514Z,19.90
2018-09-08T15:26:02.420Z,19.90
2018-09-08T15:28:30.402Z,19.70
2018-09-08T15:30:58.264Z,19.70
2018-09-08T15:33:26.410Z,19.60
2018-09-08T15:35:54.516Z,19.60
2018-09-08T15:38:22.951Z,19.50
2018-09-08T15:40:52.205Z,19.50
2018-09-08T15:43:20.344Z,19.40
2018-09-08T15:45:48.393Z,19.30
2018-09-08T15:48:16.457Z,19.30
2018-09-08T15:50:44.720Z,19.30
2018-09-08T15:53:12.562Z,19.30
2018-09-08T15:55:40.385Z,19.20
2018-09-08T15:58:08.359Z,19.20
2018-09-08T16:00:36.496Z,19.20
2018-09-08T16:03:04.771Z,19.10
2018-09-08T16:05:32.716Z,18.90
2018-09-08T16:08:04.002Z,18.80
2018-09-08T16:10:34.986Z,18.80
2018-09-08T16:13:02.798Z,18.80
2018-09-08T16:15:30.801Z,18.60
2018-09-08T16:17:59.274Z,18.60
2018-09-08T16:20:27.062Z,18.60
2018-09-08T16:22:55.247Z,18.60
2018-09-08T16:25:23.233Z,18.60
2018-09-08T16:27:51.452Z,18.40
2018-09-08T16:30:19.148Z,18.10
2018-09-08T16:32:47.053Z,18.00
2018-09-08T16:35:14.967Z,17.80
2018-09-08T16:37:42.887Z,17.70
2018-09-08T16:40:10.967Z,17.60
2018-09-08T16:42:38.975Z,17.40
2018-09-08T16:45:07.034Z,17.20
2018-09-08T16:47:34.827Z,17.00
2018-09-08T16:50:02.764Z,16.80
2018-09-08T16:52:31.122Z,16.70
2018-09-08T16:54:59.212Z,16.60
2018-09-08T16:57:27.182Z,16.50
2018-09-08T16:59:55.103Z,16.50
2018-09-08T17:02:23.149Z,16.40
2018-09-08T17:04:51.340Z,16.30
2018-09-08T17:07:19.168Z,16.20
2018-09-08T17:09:47.035Z,16.10
2018-09-08T17:12:15.322Z,16.00
2018-09-08T17:14:43.750Z,15.80
2018-09-08T17:17:11.436Z,15.70
2018-09-08T17:19:39.261Z,15.60
2018-09-08T17:22:07.185Z,15.50
2018-09-08T17:24:35.329Z,15.40
2018-09-08T17:27:03.351Z,15.40
2018-09-08T17:29:31.230Z,15.20
2018-09-08T17:32:00.189Z,15.10
2018-09-08T17:34:28.289Z,15.00
2018-09-08T17:36:56.635Z,14.80
2018-09-08T17:39:25.227Z,14.70
2018-09-08T17:41:53.128Z,14.70
2018-09-08T17:44:20.917Z,14.60
2018-09-08T17:46:48.988Z,14.60
2018-09-08T17:49:17.067Z,14.60
2018-09-08T17:58:44.452Z,14.30
2018-09-08T18:01:12.802Z,14.10
2018-09-08T18:03:40.646Z,14.00
2018-09-08T18:06:08.570Z,13.90
2018-09-08T18:08:36.490Z,13.90
2018-09-08T18:11:05.114Z,13.80
2018-09-08T18:13:33.239Z,13.80
2018-09-08T18:16:01.079Z,13.70
2018-09-08T18:18:28.980Z,13.70
2018-09-08T18:20:56.946Z,13.60
2018-09-08T18:23:24.835Z,13.50
2018-09-08T18:25:52.657Z,13.40
2018-09-08T18:28:21.429Z,13.30
2018-09-08T18:30:50.474Z,13.30
2018-09-08T18:33:18.306Z,13.20
2018-09-08T18:35:46.614Z,13.10
2018-09-08T18:38:14.431Z,13.10
2018-09-08T18:40:42.202Z,13.00
2018-09-08T18:43:10.344Z,13.00
2018-09-08T18:45:38.154Z,12.90
2018-09-08T18:48:06.168Z,13.00
2018-09-08T18:50:33.962Z,12.90
2018-09-08T18:53:01.762Z,12.80
2018-09-08T18:55:29.534Z,12.80
2018-09-08T18:57:57.367Z,12.70
2018-09-08T19:00:25.262Z,12.70
2018-09-08T19:02:53.378Z,12.70
2018-09-08T19:05:21.784Z,12.70
2018-09-08T19:07:49.924Z,12.60
2018-09-08T19:10:18.133Z,12.60
2018-09-08T19:12:46.223Z,12.50
2018-09-08T19:15:16.418Z,12.40
2018-09-08T19:17:51.165Z,12.40
2018-09-08T19:20:24.660Z,12.40
2018-09-08T19:22:53.362Z,12.50
2018-09-08T19:25:21.078Z,12.40
2018-09-08T19:27:48.943Z,12.40
2018-09-08T19:30:17.061Z,12.40
2018-09-08T19:32:45.322Z,12.30
2018-09-08T19:35:18.787Z,12.20
2018-09-08T19:37:46.636Z,12.20
2018-09-08T19:40:20.167Z,12.10
2018-09-08T19:42:48.616Z,12.00
2018-09-08T19:45:16.544Z,12.00
2018-09-08T19:47:49.896Z,12.00
2018-09-08T19:50:17.818Z,12.00
2018-09-08T19:52:52.273Z,12.00
2018-09-08T19:55:19.942Z,11.90
2018-09-08T19:57:53.208Z,11.90
2018-09-08T20:00:21.111Z,11.90
2018-09-08T20:02:49.028Z,11.90
2018-09-08T20:05:17.046Z,11.90
2018-09-08T20:07:44.912Z,11.90
2018-09-08T20:10:12.964Z,11.80
2018-09-08T20:12:40.866Z,11.80
2018-09-08T20:15:08.791Z,11.70
2018-09-08T20:17:36.660Z,11.70
2018-09-08T20:20:05.287Z,11.70
2018-09-08T20:22:34.091Z,11.60
2018-09-08T20:25:02.173Z,11.60
2018-09-08T20:27:30.027Z,11.50
2018-09-08T20:29:57.924Z,11.40
2018-09-08T20:32:26.330Z,11.40
2018-09-08T20:34:54.256Z,11.40
2018-09-08T20:37:21.987Z,11.40
2018-09-08T20:39:49.922Z,11.30
2018-09-08T20:42:17.834Z,11.20
2018-09-08T20:44:45.844Z,11.20
2018-09-08T20:47:14.629Z,11.10
2018-09-08T20:49:42.779Z,11.10
2018-09-08T20:52:10.700Z,11.10
2018-09-08T20:54:38.503Z,11.10
2018-09-08T20:57:06.713Z,11.10
2018-09-08T20:59:34.973Z,11.00
2018-09-08T21:02:03.072Z,11.00
2018-09-08T21:04:31.189Z,11.00
2018-09-08T21:06:59.182Z,10.90
2018-09-08T21:09:27.036Z,10.80
2018-09-08T21:11:54.950Z,10.80
2018-09-08T21:14:22.966Z,10.80
2018-09-08T21:16:50.923Z,10.70
2018-09-08T21:19:18.973Z,10.70
2018-09-08T21:21:47.111Z,10.60
2018-09-08T21:24:15.404Z,10.50
2018-09-08T21:26:43.246Z,10.50
2018-09-08T21:29:11.986Z,10.50
2018-09-08T21:31:40.242Z,10.40
2018-09-08T21:34:08.148Z,10.40
2018-09-08T21:36:36.547Z,10.40
2018-09-08T21:39:06.078Z,10.30
2018-09-08T21:41:34.869Z,10.30
2018-09-08T21:44:02.654Z,10.30
2018-09-08T21:46:30.612Z,10.30
2018-09-08T21:48:58.491Z,10.30
2018-09-08T21:51:26.200Z,10.40
2018-09-08T21:53:53.988Z,10.40
2018-09-08T21:56:22.826Z,10.40
2018-09-08T21:58:50.573Z,10.40
2018-09-08T22:01:23.955Z,10.30
2018-09-08T22:03:52.315Z,10.40
2018-09-08T22:06:21.397Z,10.40
2018-09-08T22:08:49.230Z,10.30
2018-09-08T22:11:16.992Z,10.30
2018-09-08T22:13:44.983Z,10.30
2018-09-08T22:16:12.741Z,10.30
2018-09-08T22:18:40.664Z,10.20
2018-09-08T22:21:08.482Z,10.30
2018-09-08T22:23:36.500Z,10.20
2018-09-08T22:26:04.566Z,10.20
2018-09-08T22:28:32.408Z,10.20
2018-09-08T22:31:00.407Z,10.20
2018-09-08T22:33:29.032Z,10.20
2018-09-08T22:35:57.612Z,10.20
2018-09-08T22:38:25.570Z,10.20
2018-09-08T22:41:01.328Z,10.20
2018-09-08T22:43:29.121Z,10.20
2018-09-08T22:45:58.156Z,10.20
2018-09-08T22:48:26.264Z,10.20
2018-09-08T22:51:57.192Z,10.10
2018-09-08T22:54:24.960Z,10.20
2018-09-08T22:56:52.712Z,10.20
2018-09-08T22:59:20.638Z,10.20
2018-09-08T23:01:48.618Z,10.20
2018-09-08T23:04:16.340Z,10.10
2018-09-08T23:06:44.108Z,10.10
2018-09-08T23:09:12.057Z,10.10
2018-09-08T23:11:39.905Z,10.20
2018-09-08T23:14:08.068Z,10.20
2018-09-08T23:16:36.425Z,10.30
2018-09-08T23:19:05.076Z,10.30
2018-09-08T23:21:32.800Z,10.30
2018-09-08T23:24:00.568Z,10.30
2018-09-08T23:26:29.322Z,10.30
2018-09-08T23:28:57.148Z,10.30
2018-09-08T23:31:25.156Z,10.30
2018-09-08T23:33:52.995Z,10.30
2018-09-08T23:36:21.053Z,10.30
2018-09-08T23:38:48.824Z,10.30
2018-09-08T23:41:16.578Z,10.30
2018-09-08T23:43:44.311Z,10.30
2018-09-08T23:46:12.366Z,10.30
2018-09-08T23:48:40.086Z,10.30
2018-09-08T23:51:07.993Z,10.30
2018-09-08T23:53:35.635Z,10.30
2018-09-08T23:56:03.751Z,10.30
2018-09-08T23:58:31.668Z,10.30
